sensor_id;sensor_type;location;lat;lon;timestamp;pressure;altitude;pressure_sealevel;temperature
78859;BMP280;68210;52.032;4.634;2024-03-23T00:53:57;100892.81;;;9.83
78859;BMP280;68210;52.032;4.634;2024-03-23T00:55:58;100891.69;;;9.84
78859;BMP280;68210;52.032;4.634;2024-03-23T00:57:58;100884.72;;;9.71
78859;BMP280;68210;52.032;4.634;2024-03-23T00:59:58;100885.19;;;9.61
78859;BMP280;68210;52.032;4.634;2024-03-23T01:02:00;100884.31;;;9.57
78859;BMP280;68210;52.032;4.634;2024-03-23T01:04:00;100878.28;;;9.64
78859;BMP280;68210;52.032;4.634;2024-03-23T01:06:01;100869.06;;;9.65
78859;BMP280;68210;52.032;4.634;2024-03-23T01:08:02;100865.81;;;9.59
78859;BMP280;68210;52.032;4.634;2024-03-23T01:10:02;100873.16;;;9.47
78859;BMP280;68210;52.032;4.634;2024-03-23T01:12:03;100875.19;;;9.38
78859;BMP280;68210;52.032;4.634;2024-03-23T01:14:03;100873.38;;;9.42
78859;BMP280;68210;52.032;4.634;2024-03-23T01:16:04;100864.38;;;9.38
78859;BMP280;68210;52.032;4.634;2024-03-23T01:18:07;100870.34;;;9.32
78859;BMP280;68210;52.032;4.634;2024-03-23T01:20:07;100859.66;;;9.35
78859;BMP280;68210;52.032;4.634;2024-03-23T01:22:08;100864.59;;;9.33
78859;BMP280;68210;52.032;4.634;2024-03-23T01:24:10;100858.06;;;9.34
78859;BMP280;68210;52.032;4.634;2024-03-23T01:26:11;100868.44;;;9.20
78859;BMP280;68210;52.032;4.634;2024-03-23T01:28:11;100865.59;;;9.05
78859;BMP280;68210;52.032;4.634;2024-03-23T01:30:11;100865.25;;;8.95
78859;BMP280;68210;52.032;4.634;2024-03-23T01:32:14;100866.75;;;9.04
78859;BMP280;68210;52.032;4.634;2024-03-23T01:34:14;100866.63;;;9.12
78859;BMP280;68210;52.032;4.634;2024-03-23T01:36:14;100871.16;;;9.09
78859;BMP280;68210;52.032;4.634;2024-03-23T01:38:15;100868.44;;;9.09
78859;BMP280;68210;52.032;4.634;2024-03-23T01:40:16;100869.09;;;8.94
78859;BMP280;68210;52.032;4.634;2024-03-23T01:42:16;100851.28;;;8.81
78859;BMP280;68210;52.032;4.634;2024-03-23T01:44:17;100865.00;;;8.76
78859;BMP280;68210;52.032;4.634;2024-03-23T01:46:17;100862.09;;;8.69
78859;BMP280;68210;52.032;4.634;2024-03-23T01:48:19;100866.94;;;8.76
78859;BMP280;68210;52.032;4.634;2024-03-23T01:50:20;100853.88;;;8.78
78859;BMP280;68210;52.032;4.634;2024-03-23T01:52:21;100849.47;;;8.73
78859;BMP280;68210;52.032;4.634;2024-03-23T01:54:22;100862.75;;;8.66
78859;BMP280;68210;52.032;4.634;2024-03-23T01:56:23;100860.72;;;8.63
78859;BMP280;68210;52.032;4.634;2024-03-23T01:58:23;100861.72;;;8.59
78859;BMP280;68210;52.032;4.634;2024-03-23T02:00:24;100840.94;;;8.71
78859;BMP280;68210;52.032;4.634;2024-03-23T02:02:25;100848.78;;;8.64
78859;BMP280;68210;52.032;4.634;2024-03-23T02:04:25;100837.19;;;8.64
78859;BMP280;68210;52.032;4.634;2024-03-23T02:06:26;100843.75;;;8.75
78859;BMP280;68210;52.032;4.634;2024-03-23T02:08:26;100846.34;;;8.83
78859;BMP280;68210;52.032;4.634;2024-03-23T02:10:27;100843.63;;;8.83
78859;BMP280;68210;52.032;4.634;2024-03-23T02:12:27;100838.22;;;8.71
78859;BMP280;68210;52.032;4.634;2024-03-23T02:14:28;100845.31;;;8.76
78859;BMP280;68210;52.032;4.634;2024-03-23T02:16:28;100834.13;;;8.65
78859;BMP280;68210;52.032;4.634;2024-03-23T02:18:28;100836.19;;;8.68
78859;BMP280;68210;52.032;4.634;2024-03-23T02:20:28;100826.97;;;8.69
78859;BMP280;68210;52.032;4.634;2024-03-23T02:22:38;100828.16;;;8.60
78859;BMP280;68210;52.032;4.634;2024-03-23T02:24:39;100824.69;;;8.48
78859;BMP280;68210;52.032;4.634;2024-03-23T02:26:39;100831.44;;;8.53
78859;BMP280;68210;52.032;4.634;2024-03-23T02:28:39;100823.91;;;8.59
78859;BMP280;68210;52.032;4.634;2024-03-23T02:30:40;100827.28;;;8.56
78859;BMP280;68210;52.032;4.634;2024-03-23T02:32:40;100822.34;;;8.58
78859;BMP280;68210;52.032;4.634;2024-03-23T02:34:41;100819.72;;;8.49
78859;BMP280;68210;52.032;4.634;2024-03-23T02:36:41;100812.06;;;8.51
78859;BMP280;68210;52.032;4.634;2024-03-23T02:38:41;100812.75;;;8.60
78859;BMP280;68210;52.032;4.634;2024-03-23T02:40:42;100819.50;;;8.54
78859;BMP280;68210;52.032;4.634;2024-03-23T02:42:42;100817.91;;;8.42
78859;BMP280;68210;52.032;4.634;2024-03-23T02:44:42;100814.19;;;8.34
78859;BMP280;68210;52.032;4.634;2024-03-23T02:46:43;100822.75;;;8.36
78859;BMP280;68210;52.032;4.634;2024-03-23T02:48:43;100812.94;;;8.32
78859;BMP280;68210;52.032;4.634;2024-03-23T02:50:44;100811.38;;;8.31
78859;BMP280;68210;52.032;4.634;2024-03-23T02:52:44;100815.38;;;8.25
78859;BMP280;68210;52.032;4.634;2024-03-23T02:54:44;100811.00;;;8.20
78859;BMP280;68210;52.032;4.634;2024-03-23T02:56:45;100808.69;;;8.11
78859;BMP280;68210;52.032;4.634;2024-03-23T02:58:45;100807.47;;;8.08
78859;BMP280;68210;52.032;4.634;2024-03-23T03:00:46;100801.78;;;8.01
78859;BMP280;68210;52.032;4.634;2024-03-23T03:02:46;100810.31;;;8.03
78859;BMP280;68210;52.032;4.634;2024-03-23T03:04:47;100812.78;;;7.96
78859;BMP280;68210;52.032;4.634;2024-03-23T03:06:48;100808.97;;;7.97
78859;BMP280;68210;52.032;4.634;2024-03-23T03:08:48;100804.53;;;7.93
78859;BMP280;68210;52.032;4.634;2024-03-23T03:10:49;100802.97;;;7.92
78859;BMP280;68210;52.032;4.634;2024-03-23T03:12:49;100804.91;;;7.91
78859;BMP280;68210;52.032;4.634;2024-03-23T03:14:49;100807.78;;;7.87
78859;BMP280;68210;52.032;4.634;2024-03-23T03:16:50;100802.13;;;7.80
78859;BMP280;68210;52.032;4.634;2024-03-23T03:18:50;100804.81;;;7.80
78859;BMP280;68210;52.032;4.634;2024-03-23T03:20:54;100806.34;;;7.89
78859;BMP280;68210;52.032;4.634;2024-03-23T03:22:54;100797.13;;;7.90
78859;BMP280;68210;52.032;4.634;2024-03-23T03:24:55;100804.78;;;7.88
78859;BMP280;68210;52.032;4.634;2024-03-23T03:26:55;100800.91;;;7.77
78859;BMP280;68210;52.032;4.634;2024-03-23T03:28:56;100805.75;;;7.84
78859;BMP280;68210;52.032;4.634;2024-03-23T03:30:57;100803.53;;;7.86
78859;BMP280;68210;52.032;4.634;2024-03-23T03:32:57;100800.81;;;7.86
78859;BMP280;68210;52.032;4.634;2024-03-23T03:34:57;100801.25;;;7.87
78859;BMP280;68210;52.032;4.634;2024-03-23T03:36:58;100790.16;;;7.89
78859;BMP280;68210;52.032;4.634;2024-03-23T03:38:58;100794.75;;;7.88
78859;BMP280;68210;52.032;4.634;2024-03-23T03:40:59;100793.16;;;7.87
78859;BMP280;68210;52.032;4.634;2024-03-23T03:42:59;100788.44;;;7.85
78859;BMP280;68210;52.032;4.634;2024-03-23T03:44:59;100777.84;;;7.80
78859;BMP280;68210;52.032;4.634;2024-03-23T03:47:00;100787.06;;;7.79
78859;BMP280;68210;52.032;4.634;2024-03-23T03:49:00;100785.16;;;7.79
78859;BMP280;68210;52.032;4.634;2024-03-23T03:51:00;100779.63;;;7.76
78859;BMP280;68210;52.032;4.634;2024-03-23T03:53:01;100775.38;;;7.75
78859;BMP280;68210;52.032;4.634;2024-03-23T03:55:02;100768.25;;;7.70
78859;BMP280;68210;52.032;4.634;2024-03-23T03:57:03;100761.16;;;7.66
78859;BMP280;68210;52.032;4.634;2024-03-23T03:59:04;100771.22;;;7.77
78859;BMP280;68210;52.032;4.634;2024-03-23T04:01:07;100766.13;;;7.96
78859;BMP280;68210;52.032;4.634;2024-03-23T04:03:07;100765.19;;;8.12
78859;BMP280;68210;52.032;4.634;2024-03-23T04:05:08;100769.16;;;8.06
78859;BMP280;68210;52.032;4.634;2024-03-23T04:07:08;100767.69;;;7.97
78859;BMP280;68210;52.032;4.634;2024-03-23T04:09:08;100766.47;;;8.06
78859;BMP280;68210;52.032;4.634;2024-03-23T04:11:09;100761.50;;;7.96
78859;BMP280;68210;52.032;4.634;2024-03-23T04:13:09;100762.19;;;7.93
78859;BMP280;68210;52.032;4.634;2024-03-23T04:15:10;100765.75;;;7.86
78859;BMP280;68210;52.032;4.634;2024-03-23T04:17:10;100753.13;;;7.78
78859;BMP280;68210;52.032;4.634;2024-03-23T04:19:11;100746.59;;;7.79
78859;BMP280;68210;52.032;4.634;2024-03-23T04:21:11;100753.34;;;7.85
78859;BMP280;68210;52.032;4.634;2024-03-23T04:23:11;100754.16;;;7.85
78859;BMP280;68210;52.032;4.634;2024-03-23T04:25:13;100760.19;;;7.82
78859;BMP280;68210;52.032;4.634;2024-03-23T04:27:13;100755.38;;;7.87
78859;BMP280;68210;52.032;4.634;2024-03-23T04:29:14;100754.28;;;7.88
78859;BMP280;68210;52.032;4.634;2024-03-23T04:31:14;100745.69;;;7.75
78859;BMP280;68210;52.032;4.634;2024-03-23T04:33:14;100761.72;;;7.71
78859;BMP280;68210;52.032;4.634;2024-03-23T04:35:15;100759.25;;;7.66
78859;BMP280;68210;52.032;4.634;2024-03-23T04:37:15;100755.75;;;7.66
78859;BMP280;68210;52.032;4.634;2024-03-23T04:39:16;100760.38;;;7.65
78859;BMP280;68210;52.032;4.634;2024-03-23T04:41:17;100761.03;;;7.62
78859;BMP280;68210;52.032;4.634;2024-03-23T04:43:17;100756.88;;;7.65
78859;BMP280;68210;52.032;4.634;2024-03-23T04:45:18;100762.75;;;7.67
78859;BMP280;68210;52.032;4.634;2024-03-23T04:47:18;100756.41;;;7.63
78859;BMP280;68210;52.032;4.634;2024-03-23T04:49:19;100754.84;;;7.62
78859;BMP280;68210;52.032;4.634;2024-03-23T04:51:23;100753.28;;;7.61
78859;BMP280;68210;52.032;4.634;2024-03-23T04:53:24;100759.59;;;7.65
78859;BMP280;68210;52.032;4.634;2024-03-23T04:55:28;100759.47;;;7.61
78859;BMP280;68210;52.032;4.634;2024-03-23T04:57:28;100746.41;;;7.63
78859;BMP280;68210;52.032;4.634;2024-03-23T04:59:29;100756.63;;;7.58
78859;BMP280;68210;52.032;4.634;2024-03-23T05:01:29;100757.28;;;7.55
78859;BMP280;68210;52.032;4.634;2024-03-23T05:03:31;100762.09;;;7.50
78859;BMP280;68210;52.032;4.634;2024-03-23T05:05:31;100756.38;;;7.51
78859;BMP280;68210;52.032;4.634;2024-03-23T05:07:32;100760.66;;;7.52
78859;BMP280;68210;52.032;4.634;2024-03-23T05:09:32;100763.34;;;7.52
78859;BMP280;68210;52.032;4.634;2024-03-23T05:11:33;100766.50;;;7.54
78859;BMP280;68210;52.032;4.634;2024-03-23T05:13:37;100768.53;;;7.57
78859;BMP280;68210;52.032;4.634;2024-03-23T05:15:37;100763.25;;;7.60
78859;BMP280;68210;52.032;4.634;2024-03-23T05:17:37;100766.91;;;7.64
78859;BMP280;68210;52.032;4.634;2024-03-23T05:19:38;100771.06;;;7.74
78859;BMP280;68210;52.032;4.634;2024-03-23T05:21:38;100762.53;;;7.72
78859;BMP280;68210;52.032;4.634;2024-03-23T05:23:39;100764.59;;;7.75
78859;BMP280;68210;52.032;4.634;2024-03-23T05:25:39;100759.09;;;7.83
78859;BMP280;68210;52.032;4.634;2024-03-23T05:27:39;100762.59;;;7.84
78859;BMP280;68210;52.032;4.634;2024-03-23T05:29:40;100760.56;;;7.81
78859;BMP280;68210;52.032;4.634;2024-03-23T05:31:40;100761.63;;;8.00
78859;BMP280;68210;52.032;4.634;2024-03-23T05:33:43;100748.59;;;8.02
78859;BMP280;68210;52.032;4.634;2024-03-23T05:35:43;100745.09;;;8.01
78859;BMP280;68210;52.032;4.634;2024-03-23T05:37:43;100755.94;;;8.13
78859;BMP280;68210;52.032;4.634;2024-03-23T05:39:44;100741.56;;;8.21
78859;BMP280;68210;52.032;4.634;2024-03-23T05:41:45;100760.56;;;8.13
78859;BMP280;68210;52.032;4.634;2024-03-23T05:43:45;100746.84;;;8.18
78859;BMP280;68210;52.032;4.634;2024-03-23T05:45:46;100750.81;;;8.20
78859;BMP280;68210;52.032;4.634;2024-03-23T05:47:46;100752.94;;;8.15
78859;BMP280;68210;52.032;4.634;2024-03-23T05:49:46;100743.81;;;8.19
78859;BMP280;68210;52.032;4.634;2024-03-23T05:51:47;100747.31;;;8.31
78859;BMP280;68210;52.032;4.634;2024-03-23T05:53:47;100739.06;;;8.16
78859;BMP280;68210;52.032;4.634;2024-03-23T05:55:48;100743.69;;;8.16
78859;BMP280;68210;52.032;4.634;2024-03-23T05:57:48;100735.25;;;8.17
78859;BMP280;68210;52.032;4.634;2024-03-23T05:59:48;100742.25;;;8.18
78859;BMP280;68210;52.032;4.634;2024-03-23T06:01:49;100747.06;;;8.13
78859;BMP280;68210;52.032;4.634;2024-03-23T06:03:49;100744.25;;;8.09
78859;BMP280;68210;52.032;4.634;2024-03-23T06:05:50;100745.72;;;8.07
78859;BMP280;68210;52.032;4.634;2024-03-23T06:07:50;100748.84;;;8.09
78859;BMP280;68210;52.032;4.634;2024-03-23T06:09:51;100747.06;;;8.13
78859;BMP280;68210;52.032;4.634;2024-03-23T06:11:51;100744.53;;;8.40
78859;BMP280;68210;52.032;4.634;2024-03-23T06:13:51;100761.28;;;8.57
78859;BMP280;68210;52.032;4.634;2024-03-23T06:15:52;100744.75;;;8.70
78859;BMP280;68210;52.032;4.634;2024-03-23T06:17:52;100746.69;;;8.81
78859;BMP280;68210;52.032;4.634;2024-03-23T06:19:52;100754.72;;;9.05
78859;BMP280;68210;52.032;4.634;2024-03-23T06:21:56;100750.56;;;9.19
78859;BMP280;68210;52.032;4.634;2024-03-23T06:23:56;100747.16;;;9.22
78859;BMP280;68210;52.032;4.634;2024-03-23T06:25:56;100740.16;;;9.33
78859;BMP280;68210;52.032;4.634;2024-03-23T06:27:56;100736.06;;;9.39
78859;BMP280;68210;52.032;4.634;2024-03-23T06:29:59;100747.59;;;9.24
78859;BMP280;68210;52.032;4.634;2024-03-23T06:31:59;100741.31;;;9.20
78859;BMP280;68210;52.032;4.634;2024-03-23T06:34:00;100740.09;;;9.45
78859;BMP280;68210;52.032;4.634;2024-03-23T06:36:02;100756.03;;;9.73
78859;BMP280;68210;52.032;4.634;2024-03-23T06:38:03;100738.53;;;9.44
78859;BMP280;68210;52.032;4.634;2024-03-23T06:40:05;100744.75;;;9.71
78859;BMP280;68210;52.032;4.634;2024-03-23T06:42:08;100743.03;;;10.06
78859;BMP280;68210;52.032;4.634;2024-03-23T06:44:08;100756.06;;;10.16
78859;BMP280;68210;52.032;4.634;2024-03-23T06:46:09;100743.59;;;10.27
78859;BMP280;68210;52.032;4.634;2024-03-23T06:48:09;100749.69;;;10.24
78859;BMP280;68210;52.032;4.634;2024-03-23T06:50:10;100745.84;;;10.25
78859;BMP280;68210;52.032;4.634;2024-03-23T06:52:10;100746.84;;;9.90
78859;BMP280;68210;52.032;4.634;2024-03-23T06:54:11;100744.25;;;10.08
78859;BMP280;68210;52.032;4.634;2024-03-23T06:56:11;100748.13;;;10.38
78859;BMP280;68210;52.032;4.634;2024-03-23T06:58:11;100746.47;;;10.64
78859;BMP280;68210;52.032;4.634;2024-03-23T07:00:12;100744.22;;;11.00
78859;BMP280;68210;52.032;4.634;2024-03-23T07:02:13;100753.75;;;11.28
78859;BMP280;68210;52.032;4.634;2024-03-23T07:04:14;100734.97;;;11.72
78859;BMP280;68210;52.032;4.634;2024-03-23T07:06:15;100746.56;;;11.35
78859;BMP280;68210;52.032;4.634;2024-03-23T07:08:15;100745.97;;;11.42
78859;BMP280;68210;52.032;4.634;2024-03-23T07:10:21;100748.31;;;11.09
78859;BMP280;68210;52.032;4.634;2024-03-23T07:12:21;100736.59;;;11.05
78859;BMP280;68210;52.032;4.634;2024-03-23T07:14:22;100747.03;;;11.22
78859;BMP280;68210;52.032;4.634;2024-03-23T07:16:23;100733.91;;;11.24
78859;BMP280;68210;52.032;4.634;2024-03-23T07:18:23;100738.25;;;11.62
78859;BMP280;68210;52.032;4.634;2024-03-23T07:20:24;100740.78;;;11.37
78859;BMP280;68210;52.032;4.634;2024-03-23T07:22:24;100750.50;;;11.38
78859;BMP280;68210;52.032;4.634;2024-03-23T07:24:25;100741.50;;;11.34
78859;BMP280;68210;52.032;4.634;2024-03-23T07:26:25;100744.25;;;11.71
78859;BMP280;68210;52.032;4.634;2024-03-23T07:28:25;100753.13;;;11.50
78859;BMP280;68210;52.032;4.634;2024-03-23T07:30:27;100730.59;;;12.27
78859;BMP280;68210;52.032;4.634;2024-03-23T07:32:28;100739.31;;;12.62
78859;BMP280;68210;52.032;4.634;2024-03-23T07:34:28;100733.66;;;11.85
78859;BMP280;68210;52.032;4.634;2024-03-23T07:36:28;100738.34;;;11.47
78859;BMP280;68210;52.032;4.634;2024-03-23T07:38:29;100744.94;;;11.31
78859;BMP280;68210;52.032;4.634;2024-03-23T07:40:29;100746.25;;;11.22
78859;BMP280;68210;52.032;4.634;2024-03-23T07:42:30;100738.88;;;11.03
78859;BMP280;68210;52.032;4.634;2024-03-23T07:44:31;100736.84;;;10.51
78859;BMP280;68210;52.032;4.634;2024-03-23T07:46:31;100744.19;;;10.35
78859;BMP280;68210;52.032;4.634;2024-03-23T07:48:32;100756.75;;;10.13
78859;BMP280;68210;52.032;4.634;2024-03-23T07:50:32;100739.41;;;9.75
78859;BMP280;68210;52.032;4.634;2024-03-23T07:52:33;100730.69;;;9.93
78859;BMP280;68210;52.032;4.634;2024-03-23T07:54:33;100739.63;;;10.09
78859;BMP280;68210;52.032;4.634;2024-03-23T07:56:33;100754.09;;;10.59
78859;BMP280;68210;52.032;4.634;2024-03-23T07:58:37;100735.56;;;10.94
78859;BMP280;68210;52.032;4.634;2024-03-23T08:00:38;100731.38;;;11.31
78859;BMP280;68210;52.032;4.634;2024-03-23T08:02:38;100733.75;;;12.11
78859;BMP280;68210;52.032;4.634;2024-03-23T08:04:39;100731.34;;;13.23
78859;BMP280;68210;52.032;4.634;2024-03-23T08:06:39;100719.72;;;13.26
78859;BMP280;68210;52.032;4.634;2024-03-23T08:08:40;100724.06;;;13.96
78859;BMP280;68210;52.032;4.634;2024-03-23T08:10:51;100713.25;;;13.99
78859;BMP280;68210;52.032;4.634;2024-03-23T08:12:51;100715.97;;;13.99
78859;BMP280;68210;52.032;4.634;2024-03-23T08:14:52;100728.81;;;14.38
78859;BMP280;68210;52.032;4.634;2024-03-23T08:16:54;100729.88;;;14.27
78859;BMP280;68210;52.032;4.634;2024-03-23T08:18:54;100713.97;;;13.64
78859;BMP280;68210;52.032;4.634;2024-03-23T08:21:02;100733.69;;;13.83
78859;BMP280;68210;52.032;4.634;2024-03-23T08:23:03;100717.19;;;14.05
78859;BMP280;68210;52.032;4.634;2024-03-23T08:25:03;100718.78;;;13.77
78859;BMP280;68210;52.032;4.634;2024-03-23T08:27:05;100730.84;;;13.43
78859;BMP280;68210;52.032;4.634;2024-03-23T08:29:05;100733.19;;;12.90
78859;BMP280;68210;52.032;4.634;2024-03-23T08:31:12;100713.47;;;12.49
78859;BMP280;68210;52.032;4.634;2024-03-23T08:33:13;100720.09;;;12.74
78859;BMP280;68210;52.032;4.634;2024-03-23T08:35:13;100719.88;;;12.15
78859;BMP280;68210;52.032;4.634;2024-03-23T08:37:13;100716.72;;;12.13
78859;BMP280;68210;52.032;4.634;2024-03-23T08:39:14;100731.13;;;12.14
78859;BMP280;68210;52.032;4.634;2024-03-23T08:41:14;100705.00;;;12.10
78859;BMP280;68210;52.032;4.634;2024-03-23T08:43:14;100720.56;;;12.76
78859;BMP280;68210;52.032;4.634;2024-03-23T08:45:15;100714.22;;;13.23
78859;BMP280;68210;52.032;4.634;2024-03-23T08:47:15;100710.53;;;12.83
78859;BMP280;68210;52.032;4.634;2024-03-23T08:49:16;100728.72;;;12.76
78859;BMP280;68210;52.032;4.634;2024-03-23T08:51:16;100716.44;;;11.78
78859;BMP280;68210;52.032;4.634;2024-03-23T08:53:17;100719.66;;;11.46
78859;BMP280;68210;52.032;4.634;2024-03-23T08:55:17;100712.41;;;11.50
78859;BMP280;68210;52.032;4.634;2024-03-23T08:57:18;100721.97;;;11.10
78859;BMP280;68210;52.032;4.634;2024-03-23T08:59:18;100719.78;;;11.15
78859;BMP280;68210;52.032;4.634;2024-03-23T09:01:20;100727.16;;;11.33
78859;BMP280;68210;52.032;4.634;2024-03-23T09:03:20;100733.25;;;11.30
78859;BMP280;68210;52.032;4.634;2024-03-23T09:05:21;100724.78;;;10.98
78859;BMP280;68210;52.032;4.634;2024-03-23T09:07:22;100723.44;;;10.73
78859;BMP280;68210;52.032;4.634;2024-03-23T09:09:22;100736.16;;;10.69
78859;BMP280;68210;52.032;4.634;2024-03-23T09:11:22;100738.56;;;10.74
78859;BMP280;68210;52.032;4.634;2024-03-23T09:13:23;100733.69;;;10.49
78859;BMP280;68210;52.032;4.634;2024-03-23T09:15:23;100741.91;;;10.37
78859;BMP280;68210;52.032;4.634;2024-03-23T09:17:23;100732.47;;;10.47
78859;BMP280;68210;52.032;4.634;2024-03-23T09:19:27;100718.97;;;10.81
78859;BMP280;68210;52.032;4.634;2024-03-23T09:21:28;100723.88;;;10.91
78859;BMP280;68210;52.032;4.634;2024-03-23T09:23:28;100723.53;;;11.11
78859;BMP280;68210;52.032;4.634;2024-03-23T09:25:28;100724.06;;;11.01
78859;BMP280;68210;52.032;4.634;2024-03-23T09:27:29;100727.41;;;11.10
78859;BMP280;68210;52.032;4.634;2024-03-23T09:29:29;100727.31;;;11.40
78859;BMP280;68210;52.032;4.634;2024-03-23T09:31:29;100729.22;;;11.40
78859;BMP280;68210;52.032;4.634;2024-03-23T09:33:31;100730.56;;;11.86
78859;BMP280;68210;52.032;4.634;2024-03-23T09:35:32;100716.72;;;12.13
78859;BMP280;68210;52.032;4.634;2024-03-23T09:37:32;100718.41;;;11.99
78859;BMP280;68210;52.032;4.634;2024-03-23T09:39:32;100724.25;;;11.42
78859;BMP280;68210;52.032;4.634;2024-03-23T09:41:33;100725.53;;;11.48
78859;BMP280;68210;52.032;4.634;2024-03-23T09:43:33;100729.97;;;11.22
78859;BMP280;68210;52.032;4.634;2024-03-23T09:45:36;100720.88;;;11.14
78859;BMP280;68210;52.032;4.634;2024-03-23T09:47:38;100734.03;;;11.46
78859;BMP280;68210;52.032;4.634;2024-03-23T09:49:39;100713.94;;;11.32
78859;BMP280;68210;52.032;4.634;2024-03-23T09:51:40;100711.19;;;11.13
78859;BMP280;68210;52.032;4.634;2024-03-23T09:53:41;100725.88;;;10.78
78859;BMP280;68210;52.032;4.634;2024-03-23T09:55:43;100724.31;;;10.77
78859;BMP280;68210;52.032;4.634;2024-03-23T09:57:44;100719.88;;;10.39
78859;BMP280;68210;52.032;4.634;2024-03-23T09:59:44;100717.44;;;10.49
78859;BMP280;68210;52.032;4.634;2024-03-23T10:01:45;100723.91;;;9.87
78859;BMP280;68210;52.032;4.634;2024-03-23T10:03:45;100712.28;;;10.14
78859;BMP280;68210;52.032;4.634;2024-03-23T10:05:46;100715.31;;;9.97
78859;BMP280;68210;52.032;4.634;2024-03-23T10:07:46;100728.28;;;10.19
78859;BMP280;68210;52.032;4.634;2024-03-23T10:09:47;100712.81;;;10.34
78859;BMP280;68210;52.032;4.634;2024-03-23T10:11:48;100710.59;;;10.55
78859;BMP280;68210;52.032;4.634;2024-03-23T10:13:50;100705.34;;;10.77
78859;BMP280;68210;52.032;4.634;2024-03-23T10:15:57;100711.50;;;10.59
78859;BMP280;68210;52.032;4.634;2024-03-23T10:18:06;100719.44;;;10.67
78859;BMP280;68210;52.032;4.634;2024-03-23T10:20:21;100715.69;;;10.41
78859;BMP280;68210;52.032;4.634;2024-03-23T10:22:23;100725.91;;;10.32
78859;BMP280;68210;52.032;4.634;2024-03-23T10:24:26;100724.50;;;10.23
78859;BMP280;68210;52.032;4.634;2024-03-23T10:26:27;100709.66;;;10.17
78859;BMP280;68210;52.032;4.634;2024-03-23T10:28:27;100719.69;;;10.47
78859;BMP280;68210;52.032;4.634;2024-03-23T10:30:28;100726.72;;;10.48
78859;BMP280;68210;52.032;4.634;2024-03-23T10:32:28;100712.03;;;10.19
78859;BMP280;68210;52.032;4.634;2024-03-23T10:34:28;100720.84;;;10.16
78859;BMP280;68210;52.032;4.634;2024-03-23T10:36:30;100720.41;;;10.14
78859;BMP280;68210;52.032;4.634;2024-03-23T10:38:30;100727.91;;;10.20
78859;BMP280;68210;52.032;4.634;2024-03-23T10:40:37;100724.16;;;10.55
78859;BMP280;68210;52.032;4.634;2024-03-23T10:42:39;100712.63;;;11.07
78859;BMP280;68210;52.032;4.634;2024-03-23T10:44:40;100706.41;;;11.07
78859;BMP280;68210;52.032;4.634;2024-03-23T10:46:40;100699.06;;;11.07
78859;BMP280;68210;52.032;4.634;2024-03-23T10:48:41;100709.97;;;11.11
78859;BMP280;68210;52.032;4.634;2024-03-23T10:50:41;100713.22;;;11.35
78859;BMP280;68210;52.032;4.634;2024-03-23T10:52:46;100710.22;;;11.40
78859;BMP280;68210;52.032;4.634;2024-03-23T10:54:47;100707.53;;;11.58
78859;BMP280;68210;52.032;4.634;2024-03-23T10:56:53;100706.09;;;11.46
78859;BMP280;68210;52.032;4.634;2024-03-23T10:58:56;100685.00;;;11.21
78859;BMP280;68210;52.032;4.634;2024-03-23T11:00:57;100697.13;;;11.42
78859;BMP280;68210;52.032;4.634;2024-03-23T11:02:58;100689.22;;;11.18
78859;BMP280;68210;52.032;4.634;2024-03-23T11:04:59;100691.16;;;11.18
78859;BMP280;68210;52.032;4.634;2024-03-23T11:07:02;100694.75;;;11.06
78859;BMP280;68210;52.032;4.634;2024-03-23T11:14:23;100705.81;;;10.64
78859;BMP280;68210;52.032;4.634;2024-03-23T11:16:26;100680.78;;;10.55
78859;BMP280;68210;52.032;4.634;2024-03-23T11:18:31;100691.28;;;10.57
78859;BMP280;68210;52.032;4.634;2024-03-23T11:20:32;100709.03;;;10.39
78859;BMP280;68210;52.032;4.634;2024-03-23T11:22:46;100700.53;;;10.71
78859;BMP280;68210;52.032;4.634;2024-03-23T11:24:51;100687.53;;;10.95
78859;BMP280;68210;52.032;4.634;2024-03-23T11:26:52;100690.50;;;10.90
78859;BMP280;68210;52.032;4.634;2024-03-23T11:29:08;100682.41;;;11.09
78859;BMP280;68210;52.032;4.634;2024-03-23T11:31:09;100677.22;;;11.19
78859;BMP280;68210;52.032;4.634;2024-03-23T11:33:10;100678.31;;;11.33
78859;BMP280;68210;52.032;4.634;2024-03-23T11:35:11;100673.22;;;11.13
78859;BMP280;68210;52.032;4.634;2024-03-23T11:37:24;100666.34;;;11.19
78859;BMP280;68210;52.032;4.634;2024-03-23T11:39:24;100675.06;;;11.09
78859;BMP280;68210;52.032;4.634;2024-03-23T11:41:25;100665.81;;;10.95
78859;BMP280;68210;52.032;4.634;2024-03-23T11:43:25;100682.97;;;10.99
78859;BMP280;68210;52.032;4.634;2024-03-23T11:45:26;100679.91;;;11.00
78859;BMP280;68210;52.032;4.634;2024-03-23T11:47:26;100678.03;;;10.86
78859;BMP280;68210;52.032;4.634;2024-03-23T11:49:28;100661.63;;;10.63
78859;BMP280;68210;52.032;4.634;2024-03-23T11:51:29;100664.91;;;10.54
78859;BMP280;68210;52.032;4.634;2024-03-23T11:53:34;100664.28;;;10.45
78859;BMP280;68210;52.032;4.634;2024-03-23T11:55:57;100661.63;;;10.63
78859;BMP280;68210;52.032;4.634;2024-03-23T11:57:58;100664.78;;;10.50
78859;BMP280;68210;52.032;4.634;2024-03-23T11:59:58;100663.16;;;10.15
78859;BMP280;68210;52.032;4.634;2024-03-23T12:01:58;100651.19;;;10.01
78859;BMP280;68210;52.032;4.634;2024-03-23T12:03:59;100669.81;;;10.02
78859;BMP280;68210;52.032;4.634;2024-03-23T12:06:00;100654.34;;;10.03
78859;BMP280;68210;52.032;4.634;2024-03-23T12:08:21;100658.81;;;10.11
78859;BMP280;68210;52.032;4.634;2024-03-23T12:10:22;100661.06;;;10.09
78859;BMP280;68210;52.032;4.634;2024-03-23T12:12:22;100661.97;;;10.13
78859;BMP280;68210;52.032;4.634;2024-03-23T12:14:22;100657.91;;;10.22
78859;BMP280;68210;52.032;4.634;2024-03-23T12:16:24;100646.63;;;10.35
78859;BMP280;68210;52.032;4.634;2024-03-23T12:18:26;100650.13;;;10.51
78859;BMP280;68210;52.032;4.634;2024-03-23T12:20:27;100640.75;;;10.49
78859;BMP280;68210;52.032;4.634;2024-03-23T12:22:27;100642.03;;;10.70
78859;BMP280;68210;52.032;4.634;2024-03-23T12:24:29;100646.91;;;10.98
78859;BMP280;68210;52.032;4.634;2024-03-23T12:26:30;100625.72;;;11.04
78859;BMP280;68210;52.032;4.634;2024-03-23T12:28:31;100636.72;;;10.92
78859;BMP280;68210;52.032;4.634;2024-03-23T12:30:41;100646.81;;;10.42
78859;BMP280;68210;52.032;4.634;2024-03-23T12:32:41;100663.00;;;10.08